Pineville, MO (64856)

9:54 AM CDT on July 23, 2016 (GMT -0500)
Gravette Westside | | Change Station
Active Advisory: Excessive Heat Warning

Elev 1220 ft 36.42 °N, 94.46 °W | Updated 2 seconds ago

Clear
Clear
90.0 °F
Feels Like 103 °F
N
0.4
Wind Variable Wind from SSW
Gusts 3.1 mph

Today
High -- | Low -- °F
--% Chance of Precip.
Yesterday
High -- | Low -- °F
Precip. -- in
Pressure 30.05 in
Visibility 10.0 miles
Clouds Clear
Heat Index 103 °F
Dew Point 77 °F
Humidity 66%
Rainfall 0.00 in
Snow Depth Not available.
6:16 AM 8:30 PM
Waning Gibbous, 85% visible
METAR KVBT 231435Z AUTO 24004KT 10SM CLR 31/23 A3005 RMK AO1
Pressure 30.05 in
Visibility 10.0 miles
Clouds Clear
Heat Index 103 °F
Dew Point 77 °F
Humidity 66%
Rainfall 0.00 in
Snow Depth Not available.
6:16 AM 8:30 PM
Waning Gibbous, 85% visible
METAR KVBT 231435Z AUTO 24004KT 10SM CLR 31/23 A3005 RMK AO1

10-Day Weather Forecast

Almanac

Astronomy

Jul. 23, 2016 Rise Set
Actual Time
Civil Twilight
Nautical Twilight
Astronomical Twilight
Moon
Length of Visible Light
Length of Day
Tomorrow will be .
, % of the Moon is Illuminated

Today's Extremes

State Highs State Lows

Community

WunderPhotos

Upload Photos

1,926,825 photos uploaded!

WunderBlog® & News

Nearby

Air Quality

  Air Quality AQ Index Pollutant
Not available.

Snow Depth

Station Depth Elevation

Earthquake Activity

City Distance Mag. Time & Date
Minimum magnitude displayed is 2.5.

Coastal Water Temperatures

Place Temperature

Stations

Nearby Weather Stations

Station Location Temp. Windchill Dew Point Humidity Wind Precip. Elev Updated Type
                   

Watches & Warnings

Excessive Heat Warning
Issued: 3:00 AM CDT Jul. 23, 2016 – National Weather Service

... Excessive heat warning remains in effect until 8 PM CDT
Sunday...

* temperature... high temperatures in the middle and upper 90s
combined with higher than normal humidity will result in
afternoon heat index values between 105 and 110 degrees this
afternoon and again Sunday afternoon.

* Impacts... the prolonged period of hot temperatures and high
humidity will increase the potential for heat related
illnesses.

Precautionary/preparedness actions...

An excessive heat warning means that a prolonged period of
dangerously hot temperatures will occur. The combination of hot
temperatures and high humidity will combine to create a dangerous
situation in which heat illnesses are likely. Drink plenty of
fluids... stay in an air-conditioned room... stay out of the sun...
and check up on relatives and neighbors.

To reduce risk during outdoor work... the occupational safety and
health administration recommends scheduling frequent rest breaks
in shaded or air conditioned environments. Anyone overcome by
heat should be moved to a cool and shaded location. Heat stroke
is an emergency... call 9 1 1.



Boxell